Time;durP1;ratioP1;P1;durP2;ratioP2;P2;SDS_P1;SDS_P2;PMS_P1;PMS_P2;Temp;Humidity;BMP_temperature;BMP_pressure;BME280_temperature;BME280_humidity;BME280_pressure;Samples;Min_cycle;Max_cycle;Signal;HPM_P1;HPM_P2
2023/01/25 06:00:28;;;;;;;18.40;14.10;;;5.10;97.20;;;;;;1720406;28;20181;-72
2023/01/25 06:01:23;;;;;;;18.20;15.57;;;5.10;97.20;;;;;;1720415;28;20312;-72
2023/01/25 06:02:16;;;;;;;17.95;15.60;;;5.10;97.20;;;;;;1720455;28;20591;-72
2023/01/25 06:03:11;;;;;;;18.00;14.85;;;5.10;97.20;;;;;;1718236;28;20241;-71
2023/01/25 06:04:04;;;;;;;15.95;13.73;;;5.00;97.20;;;;;;1720311;28;20205;-72
2023/01/25 06:04:55;;;;;;;19.95;15.55;;;5.00;97.20;;;;;;1718877;28;20271;-72
2023/01/25 06:05:49;;;;;;;19.17;14.93;;;5.00;97.20;;;;;;1720399;28;20288;-71
2023/01/25 06:06:40;;;;;;;17.08;14.38;;;5.00;97.20;;;;;;1720445;28;20293;-72
2023/01/25 06:07:35;;;;;;;16.50;14.50;;;5.00;97.20;;;;;;1720116;28;20215;-72
2023/01/25 06:08:26;;;;;;;17.73;15.82;;;5.00;97.20;;;;;;1720415;28;20233;-71
2023/01/25 06:09:19;;;;;;;19.25;15.60;;;5.00;97.20;;;;;;1720290;28;20292;-72
2023/01/25 06:10:11;;;;;;;18.08;14.77;;;5.00;97.20;;;;;;1719872;28;20228;-73
2023/01/25 06:11:07;;;;;;;18.13;15.00;;;5.00;97.20;;;;;;1718197;28;20208;-72
2023/01/25 06:11:58;;;;;;;20.20;15.90;;;5.10;97.20;;;;;;1720348;28;20536;-72
2023/01/25 06:12:59;;;;;;;18.75;15.25;;;5.00;97.20;;;;;;1721008;28;20228;-71
2023/01/25 06:13:50;;;;;;;17.77;15.00;;;5.00;97.20;;;;;;1721688;28;20258;-72
2023/01/25 06:14:42;;;;;;;20.37;16.17;;;5.00;97.20;;;;;;1721648;28;20205;-71
2023/01/25 06:15:34;;;;;;;18.90;15.07;;;5.00;97.20;;;;;;1721670;28;20440;-72
2023/01/25 06:16:26;;;;;;;17.92;14.98;;;5.00;97.20;;;;;;1721652;28;20209;-72
2023/01/25 06:17:17;;;;;;;17.80;15.68;;;5.00;97.20;;;;;;1721293;28;20209;-72
2023/01/25 06:18:08;;;;;;;17.00;15.00;;;5.00;97.20;;;;;;1721715;28;20205;-71
2023/01/25 06:18:59;;;;;;;18.08;15.57;;;5.00;97.20;;;;;;1721501;28;20201;-72
2023/01/25 06:19:51;;;;;;;17.23;15.00;;;5.00;97.20;;;;;;1721706;28;20201;-72
2023/01/25 06:20:41;;;;;;;19.20;15.73;;;5.00;97.20;;;;;;1721447;28;20270;-72
2023/01/25 06:21:35;;;;;;;20.20;15.60;;;5.00;97.20;;;;;;1721482;28;20225;-72
2023/01/25 06:22:26;;;;;;;18.35;15.68;;;5.00;97.20;;;;;;1721542;28;20204;-72
2023/01/25 06:23:18;;;;;;;18.00;15.10;;;5.00;97.20;;;;;;1721601;28;20239;-72
2023/01/25 06:24:09;;;;;;;17.67;15.75;;;5.10;97.20;;;;;;1721667;28;20201;-72
2023/01/25 06:25:01;;;;;;;15.80;14.20;;;5.10;97.20;;;;;;1721552;28;20205;-72
2023/01/25 06:25:52;;;;;;;15.73;14.05;;;5.10;97.20;;;;;;1721643;28;20482;-72
2023/01/25 06:26:44;;;;;;;16.73;14.23;;;5.10;97.20;;;;;;1721549;28;20201;-72
2023/01/25 06:27:35;;;;;;;17.98;14.25;;;5.10;97.20;;;;;;1721228;28;20209;-72
2023/01/25 06:28:29;;;;;;;17.23;15.40;;;5.10;97.20;;;;;;1721597;28;20209;-72
2023/01/25 06:29:19;;;;;;;17.05;14.82;;;5.10;97.20;;;;;;1720943;28;20596;-72
2023/01/25 06:30:12;;;;;;;16.43;14.60;;;5.10;97.20;;;;;;1721525;28;20201;-72
2023/01/25 06:31:06;;;;;;;16.92;15.13;;;5.10;97.20;;;;;;1721132;28;20212;-71
2023/01/25 06:31:58;;;;;;;17.10;14.63;;;5.10;97.20;;;;;;1721452;28;20259;-71
2023/01/25 06:32:49;;;;;;;16.45;14.25;;;5.10;97.20;;;;;;1721381;28;20266;-72
2023/01/25 06:33:41;;;;;;;17.50;15.02;;;5.10;97.20;;;;;;1721548;28;20202;-72
2023/01/25 06:34:32;;;;;;;17.77;14.85;;;5.10;97.20;;;;;;1721592;28;20234;-71
2023/01/25 06:35:24;;;;;;;17.70;14.17;;;5.10;97.20;;;;;;1721534;28;20209;-72
2023/01/25 06:36:18;;;;;;;17.60;14.70;;;5.10;97.20;;;;;;1721493;28;20209;-71
2023/01/25 06:37:10;;;;;;;15.73;14.00;;;5.10;97.20;;;;;;1721194;28;20198;-71
2023/01/25 06:38:00;;;;;;;18.80;15.48;;;5.10;97.20;;;;;;1721446;28;20208;-72
2023/01/25 06:38:53;;;;;;;15.30;13.40;;;5.10;97.20;;;;;;1721469;28;20212;-72
2023/01/25 06:39:43;;;;;;;16.42;14.63;;;5.10;97.20;;;;;;1721505;28;20655;-72
2023/01/25 06:40:35;;;;;;;16.63;14.63;;;5.10;97.20;;;;;;1721471;28;20318;-72
2023/01/25 06:41:26;;;;;;;17.25;14.85;;;5.10;97.20;;;;;;1721390;28;20287;-72
2023/01/25 06:42:18;;;;;;;16.83;14.20;;;5.10;97.20;;;;;;1721483;28;20212;-72
2023/01/25 06:43:10;;;;;;;16.38;14.65;;;5.10;97.20;;;;;;1720492;28;20282;-72
2023/01/25 06:44:02;;;;;;;17.05;14.55;;;5.10;97.20;;;;;;1721580;28;20671;-72
2023/01/25 06:44:53;;;;;;;18.02;15.15;;;5.10;97.20;;;;;;1721481;28;20205;-71
2023/01/25 06:45:44;;;;;;;17.43;14.97;;;5.10;97.20;;;;;;1721712;28;20211;-71
2023/01/25 06:46:36;;;;;;;16.77;14.40;;;5.10;97.20;;;;;;1715269;28;20198;-71
2023/01/25 06:47:28;;;;;;;15.02;13.43;;;5.10;97.20;;;;;;1714672;28;20268;-71
2023/01/25 06:48:19;;;;;;;16.90;14.40;;;5.10;97.20;;;;;;1714941;28;20229;-71
2023/01/25 06:49:11;;;;;;;17.80;15.20;;;5.10;97.20;;;;;;1714669;28;20206;-72
2023/01/25 06:50:02;;;;;;;17.58;14.15;;;5.10;97.20;;;;;;1717649;28;21017;-72
2023/01/25 06:50:54;;;;;;;17.90;14.70;;;5.10;97.20;;;;;;1721732;28;20627;-72
2023/01/25 06:51:45;;;;;;;18.27;14.68;;;5.10;97.20;;;;;;1721723;28;20445;-71
2023/01/25 06:52:37;;;;;;;18.63;15.13;;;5.10;97.20;;;;;;1721828;28;20205;-71
2023/01/25 06:53:29;;;;;;;17.13;14.07;;;5.10;97.20;;;;;;1721618;28;20208;-71
2023/01/25 06:54:21;;;;;;;16.13;13.82;;;5.10;97.20;;;;;;1721608;28;20284;-72
2023/01/25 06:55:12;;;;;;;16.40;13.93;;;5.10;97.20;;;;;;1721334;28;20228;-72
2023/01/25 06:56:06;;;;;;;16.98;14.43;;;5.10;97.20;;;;;;1721482;28;20271;-72
2023/01/25 06:56:57;;;;;;;17.42;15.00;;;5.10;97.20;;;;;;1721248;28;20209;-72
2023/01/25 06:57:49;;;;;;;20.30;15.50;;;5.10;97.20;;;;;;1721308;28;20205;-73
2023/01/25 06:58:40;;;;;;;17.20;14.52;;;5.10;97.20;;;;;;1721231;28;20205;-72
2023/01/25 06:59:31;;;;;;;17.25;15.13;;;5.10;97.20;;;;;;1721288;28;20201;-72
2023/01/25 07:00:22;;;;;;;18.95;15.82;;;5.10;97.20;;;;;;1721037;28;20235;-72
2023/01/25 07:01:18;;;;;;;18.93;14.00;;;5.10;97.20;;;;;;1721229;28;20291;-72
2023/01/25 07:02:13;;;;;;;23.40;16.27;;;5.10;97.20;;;;;;1721350;28;20478;-71
2023/01/25 07:03:05;;;;;;;22.23;15.80;;;5.10;97.20;;;;;;1721405;28;20205;-72
2023/01/25 07:03:57;;;;;;;23.20;15.82;;;5.10;97.20;;;;;;1721359;28;20216;-72
2023/01/25 07:04:49;;;;;;;19.75;15.40;;;5.10;97.20;;;;;;1721407;28;20228;-72
2023/01/25 07:05:40;;;;;;;25.52;16.10;;;5.10;97.20;;;;;;1721294;28;20206;-72
2023/01/25 07:06:33;;;;;;;22.43;15.90;;;5.10;97.20;;;;;;1721215;28;20221;-72
2023/01/25 07:07:24;;;;;;;18.83;15.27;;;5.10;97.20;;;;;;1720966;28;20303;-73
2023/01/25 07:08:16;;;;;;;21.17;14.53;;;5.10;97.20;;;;;;1721344;28;20205;-72
2023/01/25 07:09:09;;;;;;;23.77;15.70;;;5.10;97.20;;;;;;1721096;28;20268;-72
2023/01/25 07:10:01;;;;;;;22.15;15.82;;;5.10;97.20;;;;;;1721348;28;20655;-72
2023/01/25 07:10:54;;;;;;;16.30;14.60;;;5.10;97.20;;;;;;1721209;28;20232;-72
2023/01/25 07:11:45;;;;;;;16.90;14.90;;;5.10;97.20;;;;;;1721319;28;20202;-72
2023/01/25 07:12:36;;;;;;;18.13;14.63;;;5.00;97.20;;;;;;1721249;28;20213;-73
2023/01/25 07:13:29;;;;;;;19.50;16.30;;;5.00;97.20;;;;;;1721304;28;20197;-72
2023/01/25 07:14:20;;;;;;;16.20;14.15;;;5.00;97.20;;;;;;1720999;28;20444;-72
2023/01/25 07:15:12;;;;;;;18.40;14.93;;;5.00;97.20;;;;;;1721231;28;20207;-72
2023/01/25 07:16:05;;;;;;;16.45;14.70;;;5.00;97.20;;;;;;1721124;28;20212;-72
2023/01/25 07:16:57;;;;;;;17.80;15.90;;;5.00;97.20;;;;;;1721102;28;20201;-71
2023/01/25 07:17:49;;;;;;;17.83;15.45;;;4.90;97.20;;;;;;1721115;28;20205;-72
2023/01/25 07:18:41;;;;;;;16.95;14.50;;;4.90;97.20;;;;;;1721193;28;20597;-72
2023/01/25 07:19:32;;;;;;;19.27;16.40;;;4.90;97.20;;;;;;1721143;28;20201;-71
2023/01/25 07:20:23;;;;;;;17.00;15.30;;;4.90;97.20;;;;;;1721094;28;20197;-72
2023/01/25 07:21:16;;;;;;;17.65;15.82;;;4.90;97.20;;;;;;1721140;28;20694;-72
2023/01/25 07:22:08;;;;;;;20.27;15.50;;;4.90;97.20;;;;;;1721180;28;20205;-72
2023/01/25 07:22:59;;;;;;;18.70;15.35;;;4.90;97.20;;;;;;1721318;28;20201;-72
2023/01/25 07:23:52;;;;;;;18.20;15.07;;;4.90;97.20;;;;;;1721084;28;20205;-72
2023/01/25 07:24:48;;;;;;;20.27;15.63;;;4.90;97.20;;;;;;1720553;28;20444;-72
2023/01/25 07:25:43;;;;;;;19.25;16.42;;;4.90;97.20;;;;;;1721299;28;20207;-72
2023/01/25 07:26:34;;;;;;;19.38;15.13;;;4.90;97.20;;;;;;1720819;28;20213;-73
2023/01/25 07:27:26;;;;;;;19.30;15.63;;;5.00;97.20;;;;;;1720847;28;20194;-73
2023/01/25 07:28:16;;;;;;;18.55;14.95;;;5.00;97.20;;;;;;1721104;28;20209;-74
2023/01/25 07:29:13;;;;;;;18.30;16.23;;;5.00;97.20;;;;;;1721091;28;20205;-72
2023/01/25 07:30:05;;;;;;;17.30;14.70;;;5.00;97.20;;;;;;1720587;28;20197;-72
2023/01/25 07:30:56;;;;;;;17.42;15.05;;;5.00;97.20;;;;;;1720828;28;20221;-72
2023/01/25 07:31:47;;;;;;;16.63;14.52;;;5.00;97.20;;;;;;1720867;28;20208;-73
2023/01/25 07:32:39;;;;;;;17.80;15.17;;;5.00;97.20;;;;;;1721007;28;20288;-72
2023/01/25 07:33:32;;;;;;;18.27;16.15;;;5.00;97.20;;;;;;1720529;28;20201;-72
2023/01/25 07:34:23;;;;;;;17.70;15.75;;;5.00;97.20;;;;;;1720557;28;20235;-72
2023/01/25 07:35:15;;;;;;;19.90;15.97;;;5.00;97.20;;;;;;1720947;28;20231;-71
2023/01/25 07:36:07;;;;;;;17.77;15.82;;;5.00;97.20;;;;;;1721060;28;20212;-72
2023/01/25 07:36:59;;;;;;;19.00;16.60;;;5.00;97.20;;;;;;1720970;28;20203;-72
2023/01/25 07:37:50;;;;;;;18.40;16.00;;;5.00;97.20;;;;;;1720907;28;20205;-72
2023/01/25 07:38:41;;;;;;;17.40;14.50;;;5.00;97.20;;;;;;1721206;28;20201;-72
2023/01/25 07:39:32;;;;;;;17.80;14.40;;;5.00;97.20;;;;;;1721042;28;20211;-72
2023/01/25 07:40:24;;;;;;;17.10;14.90;;;5.00;97.20;;;;;;1721076;28;20223;-73
2023/01/25 07:41:15;;;;;;;17.52;15.30;;;5.00;97.20;;;;;;1721008;28;20584;-72
2023/01/25 07:42:07;;;;;;;18.40;15.27;;;5.00;97.20;;;;;;1721156;28;20608;-72
2023/01/25 07:42:57;;;;;;;16.83;14.95;;;5.10;97.20;;;;;;1721194;28;20452;-72
2023/01/25 07:43:49;;;;;;;18.27;16.00;;;5.10;97.20;;;;;;1720801;28;20197;-71
2023/01/25 07:44:40;;;;;;;18.25;15.23;;;5.10;97.20;;;;;;1720773;28;20463;-73
2023/01/25 07:45:32;;;;;;;20.33;15.67;;;5.10;97.20;;;;;;1721082;28;20201;-73
2023/01/25 07:46:23;;;;;;;19.17;15.85;;;5.00;97.20;;;;;;1721248;28;20241;-71
2023/01/25 07:47:15;;;;;;;18.38;15.90;;;5.10;97.20;;;;;;1720446;28;20201;-72
2023/01/25 07:48:09;;;;;;;18.60;15.82;;;5.10;97.20;;;;;;1718220;28;20252;-72
2023/01/25 07:49:02;;;;;;;18.13;15.52;;;5.10;97.20;;;;;;1720718;28;20190;-72
2023/01/25 07:49:53;;;;;;;17.58;15.50;;;5.10;97.20;;;;;;1720723;28;20205;-72
2023/01/25 07:50:48;;;;;;;17.48;15.40;;;5.10;97.20;;;;;;1720246;28;20216;-71
2023/01/25 07:51:39;;;;;;;18.15;15.48;;;5.10;97.20;;;;;;1720559;28;20284;-71
2023/01/25 07:52:30;;;;;;;20.50;16.33;;;5.10;97.20;;;;;;1720636;28;20240;-72
2023/01/25 07:53:21;;;;;;;21.38;18.33;;;5.10;97.20;;;;;;1720733;28;20194;-71
2023/01/25 07:54:13;;;;;;;17.97;15.90;;;5.10;97.20;;;;;;1720658;28;20189;-72
2023/01/25 07:55:04;;;;;;;17.27;15.18;;;5.10;97.20;;;;;;1720754;28;20243;-72
2023/01/25 07:55:58;;;;;;;18.88;16.33;;;5.10;97.20;;;;;;1720726;28;20224;-71
2023/01/25 07:56:50;;;;;;;20.88;16.33;;;5.10;97.20;;;;;;1720620;28;20682;-71
2023/01/25 07:57:41;;;;;;;20.05;15.73;;;5.10;97.20;;;;;;1719372;28;20193;-71
2023/01/25 07:58:33;;;;;;;19.20;15.70;;;5.10;97.20;;;;;;1711452;28;20189;-71
2023/01/25 07:59:24;;;;;;;20.55;15.77;;;5.10;97.20;;;;;;1717697;28;20631;-72
2023/01/25 08:00:16;;;;;;;22.25;15.35;;;5.10;97.20;;;;;;1719542;28;20256;-71
2023/01/25 08:01:08;;;;;;;19.52;16.05;;;5.10;97.20;;;;;;1719914;28;20200;-72
2023/01/25 08:01:59;;;;;;;21.55;15.73;;;5.10;97.20;;;;;;1720044;28;20662;-71
2023/01/25 08:02:50;;;;;;;19.90;16.23;;;5.10;97.20;;;;;;1720495;28;20201;-72
2023/01/25 08:03:43;;;;;;;20.10;15.97;;;5.10;97.20;;;;;;1720555;28;20253;-72
2023/01/25 08:04:35;;;;;;;17.55;15.00;;;5.10;97.20;;;;;;1718570;28;20436;-72
2023/01/25 08:05:27;;;;;;;20.85;16.23;;;5.10;97.20;;;;;;1717472;28;20240;-71
2023/01/25 08:06:26;;;;;;;20.00;16.30;;;5.10;97.20;;;;;;1720524;28;20220;-73
2023/01/25 08:07:19;;;;;;;20.10;16.13;;;5.10;97.20;;;;;;1719448;28;20197;-72
2023/01/25 08:08:09;;;;;;;20.10;16.17;;;5.10;97.20;;;;;;1720386;28;20232;-71
2023/01/25 08:09:03;;;;;;;18.97;16.00;;;5.10;97.20;;;;;;1719952;28;20204;-72
2023/01/25 08:09:54;;;;;;;19.00;16.98;;;5.10;97.20;;;;;;1719507;28;20205;-72
2023/01/25 08:10:46;;;;;;;19.40;17.05;;;5.10;97.20;;;;;;1717581;28;20220;-71
2023/01/25 08:11:37;;;;;;;17.92;16.02;;;5.10;97.20;;;;;;1720537;28;20577;-72
2023/01/25 08:12:28;;;;;;;17.73;15.50;;;5.10;97.20;;;;;;1717711;28;20553;-72
2023/01/25 08:13:19;;;;;;;19.60;16.48;;;5.10;97.20;;;;;;1720849;28;20225;-71
2023/01/25 08:14:11;;;;;;;18.97;15.70;;;5.10;97.20;;;;;;1720811;28;20718;-72
2023/01/25 08:15:03;;;;;;;17.08;15.02;;;5.10;97.20;;;;;;1721132;28;20209;-72
2023/01/25 08:15:55;;;;;;;16.58;14.13;;;5.10;97.20;;;;;;1721044;28;20205;-72
2023/01/25 08:16:46;;;;;;;17.38;14.00;;;5.10;97.20;;;;;;1720654;28;20205;-72
2023/01/25 08:17:37;;;;;;;17.50;15.20;;;5.10;97.20;;;;;;1720758;28;20203;-72
2023/01/25 08:18:28;;;;;;;17.95;15.35;;;5.10;97.20;;;;;;1720948;28;20208;-72
2023/01/25 08:19:20;;;;;;;18.10;16.20;;;5.10;97.20;;;;;;1720565;28;20203;-72
2023/01/25 08:20:13;;;;;;;19.27;16.23;;;5.00;97.20;;;;;;1720918;28;20212;-71
2023/01/25 08:21:05;;;;;;;17.02;15.18;;;5.00;97.20;;;;;;1720917;28;20216;-71
2023/01/25 08:21:57;;;;;;;17.90;15.75;;;5.00;97.20;;;;;;1720909;28;20232;-72
2023/01/25 08:22:47;;;;;;;18.40;16.40;;;5.10;97.20;;;;;;1720915;28;20216;-72
2023/01/25 08:23:39;;;;;;;18.93;15.87;;;5.10;97.20;;;;;;1721033;28;20221;-72
2023/01/25 08:24:31;;;;;;;20.75;16.20;;;5.10;97.20;;;;;;1720658;28;20205;-71
2023/01/25 08:25:22;;;;;;;18.05;15.75;;;5.10;97.20;;;;;;1720880;28;20204;-71
2023/01/25 08:26:15;;;;;;;17.60;15.07;;;5.10;97.20;;;;;;1720607;28;20208;-71
2023/01/25 08:27:07;;;;;;;18.10;15.43;;;5.10;97.20;;;;;;1720561;28;20216;-72
2023/01/25 08:27:58;;;;;;;18.02;15.32;;;5.10;97.20;;;;;;1720731;28;20206;-71
2023/01/25 08:28:52;;;;;;;19.50;16.33;;;5.10;97.20;;;;;;1720926;28;20201;-73
2023/01/25 08:29:43;;;;;;;17.98;16.05;;;5.10;97.20;;;;;;1720748;28;20202;-72
2023/01/25 08:30:34;;;;;;;18.50;16.37;;;5.10;97.20;;;;;;1720862;28;20325;-72
2023/01/25 08:31:27;;;;;;;17.42;15.63;;;5.10;97.20;;;;;;1720983;28;20208;-71
2023/01/25 08:32:19;;;;;;;18.45;15.40;;;5.10;97.20;;;;;;1720954;28;20196;-71
2023/01/25 08:33:10;;;;;;;16.48;14.77;;;5.10;97.20;;;;;;1720814;28;20212;-71
2023/01/25 08:34:02;;;;;;;16.27;14.20;;;5.10;97.20;;;;;;1720838;28;20207;-72
2023/01/25 08:34:54;;;;;;;16.80;15.05;;;5.10;97.20;;;;;;1720884;28;20201;-72
2023/01/25 08:35:55;;;;;;;17.48;15.55;;;5.10;97.20;;;;;;1720630;28;20212;-72
2023/01/25 08:36:47;;;;;;;16.48;14.63;;;5.10;97.20;;;;;;1720834;28;20201;-72
2023/01/25 08:37:37;;;;;;;17.50;15.65;;;5.10;97.20;;;;;;1720211;28;20236;-72
2023/01/25 08:38:29;;;;;;;17.00;14.90;;;5.10;97.20;;;;;;1720857;28;20288;-72
2023/01/25 08:39:21;;;;;;;17.00;15.13;;;5.10;97.20;;;;;;1720679;28;20237;-72
2023/01/25 08:40:13;;;;;;;16.65;14.98;;;5.10;97.20;;;;;;1720437;28;20201;-72
2023/01/25 08:41:06;;;;;;;19.73;15.07;;;5.20;97.20;;;;;;1720768;28;20205;-72
2023/01/25 08:41:57;;;;;;;17.10;15.27;;;5.20;97.20;;;;;;1719945;28;20213;-72
2023/01/25 08:42:48;;;;;;;17.55;15.50;;;5.20;97.20;;;;;;1720356;28;20212;-72
2023/01/25 08:43:40;;;;;;;17.70;15.80;;;5.20;97.20;;;;;;1720865;28;20201;-72
2023/01/25 08:44:31;;;;;;;17.90;15.43;;;5.20;97.20;;;;;;1720582;28;20193;-72
2023/01/25 08:45:22;;;;;;;20.70;15.73;;;5.20;97.20;;;;;;1720844;28;20656;-72
2023/01/25 08:46:16;;;;;;;18.73;16.60;;;5.20;97.20;;;;;;1720769;28;20629;-72
2023/01/25 08:47:07;;;;;;;17.50;14.82;;;5.20;97.20;;;;;;1720423;28;20640;-72
2023/01/25 08:47:59;;;;;;;18.70;16.70;;;5.20;97.20;;;;;;1720868;28;20201;-72
2023/01/25 08:48:54;;;;;;;18.25;15.95;;;5.20;97.20;;;;;;1720530;28;20459;-72
2023/01/25 08:49:45;;;;;;;16.55;14.75;;;5.20;97.20;;;;;;1720639;28;20197;-72
2023/01/25 08:50:36;;;;;;;18.17;15.20;;;5.20;97.20;;;;;;1720736;28;20263;-72
2023/01/25 08:51:31;;;;;;;17.50;15.57;;;5.20;97.20;;;;;;1720716;28;20205;-72
2023/01/25 08:52:21;;;;;;;19.02;16.13;;;5.20;97.20;;;;;;1720697;28;20205;-72
2023/01/25 08:53:13;;;;;;;19.67;17.33;;;5.20;97.20;;;;;;1720871;28;20687;-71
2023/01/25 08:54:07;;;;;;;17.05;14.93;;;5.20;97.20;;;;;;1720668;28;20205;-72
2023/01/25 08:54:58;;;;;;;17.17;15.38;;;5.20;97.20;;;;;;1718288;28;20201;-72
2023/01/25 08:55:49;;;;;;;16.87;14.90;;;5.20;97.20;;;;;;1720728;28;20205;-73
2023/01/25 08:56:41;;;;;;;20.35;16.73;;;5.20;97.20;;;;;;1720542;28;20686;-71
2023/01/25 08:57:33;;;;;;;17.92;16.02;;;5.20;97.20;;;;;;1720083;28;20189;-72
2023/01/25 08:58:23;;;;;;;16.88;15.10;;;5.20;97.20;;;;;;1720714;28;20200;-71
2023/01/25 08:59:15;;;;;;;18.07;15.17;;;5.20;97.20;;;;;;1720477;28;20201;-72
2023/01/25 09:00:08;;;;;;;18.30;15.70;;;5.20;97.20;;;;;;1720689;28;20205;-72
2023/01/25 09:01:04;;;;;;;18.95;16.33;;;5.20;97.20;;;;;;1720668;28;20695;-72
2023/01/25 09:01:55;;;;;;;19.50;16.90;;;5.20;97.20;;;;;;1720722;28;20208;-72
2023/01/25 09:02:47;;;;;;;16.53;14.80;;;5.30;97.20;;;;;;1720483;28;20225;-72
2023/01/25 09:03:39;;;;;;;17.67;15.82;;;5.30;97.20;;;;;;1720605;28;20201;-72
2023/01/25 09:04:31;;;;;;;18.15;16.00;;;5.20;97.20;;;;;;1720499;28;20193;-72
2023/01/25 09:05:22;;;;;;;16.65;14.70;;;5.20;97.20;;;;;;1720706;28;20201;-72
2023/01/25 09:06:14;;;;;;;19.30;15.90;;;5.20;97.20;;;;;;1720743;28;20205;-72
2023/01/25 09:07:08;;;;;;;18.30;16.15;;;5.20;97.20;;;;;;1720397;28;20201;-71
2023/01/25 09:08:00;;;;;;;17.48;15.60;;;5.20;97.20;;;;;;1720677;28;20655;-72
2023/01/25 09:08:52;;;;;;;17.10;15.27;;;5.20;97.20;;;;;;1720312;28;20615;-72
2023/01/25 09:09:42;;;;;;;16.73;14.93;;;5.20;97.20;;;;;;1720235;28;20444;-72
2023/01/25 09:10:34;;;;;;;17.07;15.27;;;5.20;97.20;;;;;;1720600;28;20225;-71
2023/01/25 09:11:25;;;;;;;19.60;16.70;;;5.30;97.20;;;;;;1720636;28;20209;-73
2023/01/25 09:12:16;;;;;;;18.60;16.10;;;5.30;97.20;;;;;;1720638;28;20200;-72
2023/01/25 09:13:07;;;;;;;18.55;15.75;;;5.30;97.20;;;;;;1720632;28;20201;-71
2023/01/25 09:13:59;;;;;;;18.53;16.63;;;5.30;97.20;;;;;;1720812;28;20208;-72
2023/01/25 09:14:49;;;;;;;18.40;16.35;;;5.30;97.20;;;;;;1720500;28;20233;-72
2023/01/25 09:15:41;;;;;;;18.40;16.40;;;5.30;97.20;;;;;;1720750;28;20201;-72
2023/01/25 09:16:33;;;;;;;18.85;16.58;;;5.30;97.20;;;;;;1720295;28;20655;-71
2023/01/25 09:17:24;;;;;;;18.33;15.55;;;5.30;97.20;;;;;;1720242;28;20201;-71
2023/01/25 09:18:16;;;;;;;19.20;16.50;;;5.30;97.20;;;;;;1720549;28;20212;-72
2023/01/25 09:19:08;;;;;;;19.50;16.08;;;5.30;97.20;;;;;;1720531;28;20448;-72
2023/01/25 09:19:58;;;;;;;17.45;14.88;;;5.30;97.20;;;;;;1720258;28;20197;-72
2023/01/25 09:20:50;;;;;;;18.70;15.77;;;5.30;97.20;;;;;;1720578;28;20236;-72
2023/01/25 09:21:41;;;;;;;19.13;16.13;;;5.30;97.20;;;;;;1720598;28;20208;-72
2023/01/25 09:22:34;;;;;;;19.03;15.60;;;5.30;97.20;;;;;;1720559;28;20231;-72
2023/01/25 09:23:25;;;;;;;18.88;16.30;;;5.30;97.20;;;;;;1720844;28;20675;-72
2023/01/25 09:24:17;;;;;;;19.50;17.00;;;5.30;97.20;;;;;;1720538;28;20233;-71
2023/01/25 09:25:08;;;;;;;19.10;17.10;;;5.40;97.20;;;;;;1720641;28;20211;-71
2023/01/25 09:26:01;;;;;;;20.08;16.48;;;5.30;97.20;;;;;;1720801;28;20201;-71
2023/01/25 09:26:53;;;;;;;17.65;15.20;;;5.40;97.20;;;;;;1720597;28;20238;-72
2023/01/25 09:27:43;;;;;;;22.08;16.38;;;5.40;97.20;;;;;;1720377;28;20240;-72
2023/01/25 09:28:35;;;;;;;19.57;15.90;;;5.40;97.20;;;;;;1720659;28;20659;-72
2023/01/25 09:29:27;;;;;;;17.92;15.73;;;5.40;97.20;;;;;;1720450;28;20201;-72
2023/01/25 09:30:18;;;;;;;18.17;16.23;;;5.40;97.20;;;;;;1720578;28;20626;-71
2023/01/25 09:31:10;;;;;;;19.07;16.47;;;5.40;97.20;;;;;;1720299;28;20202;-72
2023/01/25 09:32:02;;;;;;;18.35;16.00;;;5.40;97.20;;;;;;1720685;28;20511;-73
2023/01/25 09:32:53;;;;;;;18.38;16.38;;;5.40;97.20;;;;;;1720566;28;20208;-72
2023/01/25 09:33:45;;;;;;;17.83;15.80;;;5.40;97.20;;;;;;1720625;28;20201;-72
2023/01/25 09:34:36;;;;;;;19.10;17.05;;;5.40;97.20;;;;;;1720314;28;20205;-72
2023/01/25 09:35:28;;;;;;;18.67;16.48;;;5.40;97.20;;;;;;1720593;28;20209;-72
2023/01/25 09:36:20;;;;;;;19.02;16.63;;;5.40;97.20;;;;;;1720586;28;20263;-72
2023/01/25 09:37:11;;;;;;;21.13;16.13;;;5.40;97.20;;;;;;1720252;28;20201;-72
2023/01/25 09:38:04;;;;;;;18.90;16.83;;;5.40;97.20;;;;;;1720653;28;20258;-72
2023/01/25 09:38:56;;;;;;;19.55;16.27;;;5.40;97.20;;;;;;1720515;28;20201;-71
2023/01/25 09:39:46;;;;;;;20.90;18.23;;;5.40;97.20;;;;;;1720495;28;20651;-72
2023/01/25 09:40:41;;;;;;;22.23;18.03;;;5.40;97.20;;;;;;1720538;28;20623;-72
2023/01/25 09:42:02;;;;;;;25.48;18.48;;;5.50;97.20;;;;;;1720491;28;20208;-72
2023/01/25 09:43:00;;;;;;;20.80;17.08;;;5.50;97.20;;;;;;1705355;28;20231;-72
2023/01/25 09:44:21;;;;;;;19.70;17.58;;;5.50;97.20;;;;;;1720528;28;20228;-72
2023/01/25 09:45:22;;;;;;;21.10;16.58;;;5.50;97.20;;;;;;1714521;28;20204;-72
2023/01/25 09:46:23;;;;;;;20.63;17.30;;;5.60;97.20;;;;;;1720573;28;20209;-72
2023/01/25 09:47:24;;;;;;;20.17;18.02;;;5.60;97.20;;;;;;1720261;28;20582;-72
2023/01/25 09:48:26;;;;;;;19.33;16.40;;;5.60;97.20;;;;;;1721738;28;20205;-72
2023/01/25 09:49:30;;;;;;;18.35;16.33;;;5.60;97.20;;;;;;1721798;28;20260;-71
2023/01/25 09:50:37;;;;;;;18.20;16.10;;;5.60;97.20;;;;;;1721989;28;20284;-72
2023/01/25 09:51:39;;;;;;;18.10;16.20;;;5.60;97.20;;;;;;1721779;28;20291;-72
2023/01/25 09:53:03;;;;;;;17.65;15.45;;;5.60;97.20;;;;;;1721938;28;20228;-73
2023/01/25 09:53:58;;;;;;;17.13;15.23;;;5.60;97.20;;;;;;1721904;28;20726;-72
2023/01/25 09:54:50;;;;;;;16.83;14.40;;;5.60;97.20;;;;;;1721723;28;20578;-72
2023/01/25 09:55:42;;;;;;;19.45;16.85;;;5.60;97.20;;;;;;1721879;28;20681;-72
2023/01/25 09:56:36;;;;;;;19.05;15.70;;;5.60;97.20;;;;;;1721813;28;20201;-72
2023/01/25 09:57:33;;;;;;;21.33;17.20;;;5.60;97.20;;;;;;1721500;28;20584;-72
2023/01/25 09:58:30;;;;;;;20.27;16.80;;;5.60;97.20;;;;;;1721777;28;20213;-72
2023/01/25 09:59:29;;;;;;;18.85;16.27;;;5.60;97.20;;;;;;1721453;28;20557;-72
2023/01/25 10:00:30;;;;;;;19.20;17.20;;;5.60;97.20;;;;;;1721716;28;20632;-72
2023/01/25 10:01:28;;;;;;;18.35;16.25;;;5.60;97.20;;;;;;1721628;28;20205;-72
2023/01/25 10:02:33;;;;;;;18.77;15.93;;;5.60;97.20;;;;;;1721859;28;20243;-72
2023/01/25 10:03:28;;;;;;;21.27;16.23;;;5.60;97.20;;;;;;1721370;28;20202;-72
2023/01/25 10:04:23;;;;;;;19.05;16.02;;;5.60;97.20;;;;;;1720780;28;20648;-71
2023/01/25 10:05:20;;;;;;;20.80;16.00;;;5.60;97.20;;;;;;1721196;28;20195;-72
2023/01/25 10:06:14;;;;;;;19.35;16.63;;;5.50;97.20;;;;;;1721852;28;20706;-72
2023/01/25 10:08:32;;;;;;;19.33;16.17;;;5.50;97.20;;;;;;1714953;28;20228;-72
2023/01/25 10:09:33;;;;;;;19.45;17.00;;;5.50;97.20;;;;;;1721781;28;20556;-72
2023/01/25 10:10:32;;;;;;;19.08;16.42;;;5.50;97.20;;;;;;1721606;28;20202;-72
2023/01/25 10:11:26;;;;;;;19.42;17.33;;;5.50;97.20;;;;;;1721776;28;20284;-72
2023/01/25 10:12:21;;;;;;;18.73;16.73;;;5.50;97.20;;;;;;1721664;28;20205;-72
2023/01/25 10:13:15;;;;;;;20.10;17.90;;;5.50;97.20;;;;;;1721408;28;20200;-72
2023/01/25 10:14:13;;;;;;;20.13;15.98;;;5.50;97.20;;;;;;1721820;28;20278;-72
2023/01/25 10:15:18;;;;;;;18.88;15.85;;;5.50;97.20;;;;;;1721589;28;20255;-71
2023/01/25 10:16:16;;;;;;;21.33;16.73;;;5.50;97.20;;;;;;1721628;28;20206;-73
2023/01/25 10:17:18;;;;;;;17.75;15.85;;;5.50;97.20;;;;;;1721418;28;20207;-72
2023/01/25 10:18:20;;;;;;;18.48;15.90;;;5.50;97.20;;;;;;1721706;28;20690;-72
2023/01/25 10:19:21;;;;;;;18.05;15.82;;;5.50;97.20;;;;;;1721590;28;20206;-72
2023/01/25 10:20:24;;;;;;;18.05;16.17;;;5.50;97.20;;;;;;1721539;28;20200;-72
2023/01/25 10:21:20;;;;;;;21.67;17.60;;;5.50;97.20;;;;;;1721705;28;20684;-72
2023/01/25 10:22:16;;;;;;;18.05;16.15;;;5.50;97.20;;;;;;1721759;28;20228;-72
2023/01/25 10:23:27;;;;;;;19.95;16.70;;;5.50;97.20;;;;;;1721603;28;20225;-72
2023/01/25 10:24:59;;;;;;;18.70;16.58;;;5.50;97.20;;;;;;1721761;28;20667;-72
2023/01/25 10:25:57;;;;;;;20.00;16.98;;;5.50;97.20;;;;;;1694282;29;20596;-72
2023/01/25 10:26:55;;;;;;;19.88;17.60;;;5.50;97.20;;;;;;1694413;29;20211;-71
2023/01/25 10:28:00;;;;;;;19.70;16.08;;;5.50;97.20;;;;;;1694390;29;20291;-71
2023/01/25 10:28:57;;;;;;;18.98;17.02;;;5.60;97.20;;;;;;1714808;28;20206;-72
2023/01/25 10:29:51;;;;;;;20.55;17.10;;;5.60;97.20;;;;;;1715671;28;20210;-71
2023/01/25 10:30:53;;;;;;;21.85;17.83;;;5.60;97.20;;;;;;1721512;28;20245;-72
2023/01/25 10:31:49;;;;;;;19.35;17.05;;;5.60;97.20;;;;;;1721665;28;20255;-71
2023/01/25 10:32:40;;;;;;;19.98;17.17;;;5.60;97.20;;;;;;1721657;28;20373;-72
2023/01/25 10:33:37;;;;;;;19.35;16.77;;;5.60;97.20;;;;;;1721547;28;20208;-72
2023/01/25 10:34:33;;;;;;;20.27;17.20;;;5.60;97.20;;;;;;1721137;28;20213;-71
2023/01/25 10:35:28;;;;;;;18.38;16.23;;;5.60;97.20;;;;;;1721378;28;20201;-71